Time;durP1;ratioP1;P1;durP2;ratioP2;P2;SDS_P1;SDS_P2;PMS_P1;PMS_P2;Temp;Humidity;BMP_temperature;BMP_pressure;BME280_temperature;BME280_humidity;BME280_pressure;Samples;Min_cycle;Max_cycle;Signal;HPM_P1;HPM_P2
2022/02/09 00:07:33;;;;;;;7.40;6.55;;;;;;;;;;5033894;28;20032;-60
2022/02/09 00:09:59;;;;;;;9.18;6.90;;;;;;;;;;5043533;28;20032;-60
2022/02/09 00:12:45;;;;;;;8.07;6.85;;;;;;;;;;5032484;28;20038;-56
2022/02/09 00:31:56;;;;;;;10.35;6.72;;;;;;;;;;5030775;28;20115;-62
2022/02/09 00:34:26;;;;;;;14.68;10.40;;;;;;;;;;5029898;28;20132;-61
2022/02/09 00:42:18;;;;;;;15.15;11.52;;;;;;;;;;5030740;28;20350;-61
2022/02/09 00:59:00;;;;;;;14.82;11.88;;;;;;;;;;5031166;28;20087;-60
2022/02/09 00:59:19;;;;;;;19.58;13.98;;;;;;;;;;5018910;28;20071;-62
2022/02/09 01:40:10;;;;;;;13.25;10.75;;;;;;;;;;5032294;28;20056;-60
2022/02/09 01:56:27;;;;;;;15.55;12.05;;;;;;;;;;4941154;29;20640;-60
2022/02/09 01:58:52;;;;;;;14.50;11.50;;;;;;;;;;4938407;29;20118;-60
2022/02/09 02:01:17;;;;;;;11.88;10.18;;;;;;;;;;4935418;29;20454;-60
2022/02/09 02:03:44;;;;;;;10.27;9.00;;;;;;;;;;4936552;29;20043;-60
2022/02/09 02:06:09;;;;;;;7.97;7.18;;;;;;;;;;4947779;29;20118;-59
2022/02/09 02:08:34;;;;;;;13.30;10.73;;;;;;;;;;4945695;29;20118;-60
2022/02/09 02:16:20;;;;;;;11.15;9.63;;;;;;;;;;4950885;29;20350;-60
2022/02/09 02:18:51;;;;;;;9.80;8.77;;;;;;;;;;4942782;29;20421;-60
2022/02/09 02:21:24;;;;;;;10.52;9.43;;;;;;;;;;4931245;28;20433;-59
2022/02/09 02:24:12;;;;;;;10.90;9.80;;;;;;;;;;4984775;28;20028;-60
2022/02/09 03:15:20;;;;;;;9.48;7.65;;;;;;;;;;4952198;28;20027;-60
2022/02/09 03:17:57;;;;;;;7.43;6.70;;;;;;;;;;4954263;28;20035;-59
2022/02/09 03:20:29;;;;;;;6.85;6.15;;;;;;;;;;4957824;28;20046;-60
2022/02/09 03:23:04;;;;;;;6.38;5.78;;;;;;;;;;4952581;28;20059;-60
2022/02/09 03:47:27;;;;;;;6.38;5.75;;;;;;;;;;5011808;28;20093;-60
2022/02/09 03:50:20;;;;;;;7.53;6.75;;;;;;;;;;5012287;28;20037;-60
2022/02/09 03:58:03;;;;;;;5.78;5.18;;;;;;;;;;4992144;28;20086;-59
2022/02/09 04:00:33;;;;;;;4.97;4.30;;;;;;;;;;4992725;28;20054;-59
2022/02/09 04:03:00;;;;;;;5.35;4.78;;;;;;;;;;4989439;28;20085;-59
2022/02/09 04:05:26;;;;;;;3.60;3.30;;;;;;;;;;4992671;28;20078;-59
2022/02/09 04:07:51;;;;;;;3.65;3.35;;;;;;;;;;4975842;28;20207;-60
2022/02/09 04:10:22;;;;;;;3.33;3.03;;;;;;;;;;4992200;28;20117;-60
2022/02/09 04:15:29;;;;;;;4.40;3.20;;;;;;;;;;4992681;28;20041;-60
2022/02/09 04:39:57;;;;;;;2.58;2.38;;;;;;;;;;5032505;28;20303;-59
2022/02/09 04:47:49;;;;;;;2.30;2.10;;;;;;;;;;5033965;28;20441;-60
2022/02/09 04:50:35;;;;;;;1.85;1.75;;;;;;;;;;5035282;28;20028;-60
2022/02/09 04:54:11;;;;;;;1.98;1.80;;;;;;;;;;5030627;28;20076;-59
2022/02/09 04:55:57;;;;;;;1.27;1.17;;;;;;;;;;5026575;28;20055;-59
2022/02/09 05:01:55;;;;;;;1.73;1.63;;;;;;;;;;5043220;28;20029;-60
2022/02/09 05:30:29;;;;;;;1.80;1.70;;;;;;;;;;4930721;29;20056;-60
2022/02/09 05:32:54;;;;;;;2.72;2.33;;;;;;;;;;4921422;29;20093;-60
2022/02/09 05:35:21;;;;;;;2.22;2.03;;;;;;;;;;4930154;29;20019;-60
2022/02/09 05:37:50;;;;;;;2.17;1.98;;;;;;;;;;4929683;29;20513;-62
2022/02/09 05:40:15;;;;;;;2.42;2.22;;;;;;;;;;4918436;29;20441;-58
2022/02/09 05:42:40;;;;;;;2.38;2.25;;;;;;;;;;4926632;29;20477;-59
2022/02/09 05:45:09;;;;;;;2.28;2.10;;;;;;;;;;4914564;29;20103;-59
2022/02/09 05:51:20;;;;;;;3.50;3.17;;;;;;;;;;4929518;29;20115;-60
2022/02/09 05:53:11;;;;;;;3.00;2.67;;;;;;;;;;4922464;29;20589;-59
2022/02/09 05:55:49;;;;;;;3.63;2.58;;;;;;;;;;4931845;29;20043;-60
2022/02/09 06:00:56;;;;;;;3.25;2.95;;;;;;;;;;5030909;28;20108;-60
2022/02/09 06:03:21;;;;;;;2.47;2.28;;;;;;;;;;5030896;28;20100;-60
2022/02/09 06:05:47;;;;;;;2.35;2.17;;;;;;;;;;5038803;28;20454;-58
2022/02/09 06:08:12;;;;;;;2.25;2.05;;;;;;;;;;5033093;28;20052;-59
2022/02/09 06:10:39;;;;;;;2.63;2.42;;;;;;;;;;5031300;28;20021;-60
2022/02/09 06:21:18;;;;;;;3.03;2.70;;;;;;;;;;5003742;28;20032;-59
2022/02/09 06:23:43;;;;;;;3.45;2.45;;;;;;;;;;5003775;28;20422;-61
2022/02/09 06:26:09;;;;;;;3.05;2.75;;;;;;;;;;5014372;28;20032;-60
2022/02/09 06:28:34;;;;;;;3.15;2.90;;;;;;;;;;5021436;28;20040;-60
2022/02/09 06:30:59;;;;;;;3.50;3.30;;;;;;;;;;5017829;28;20475;-60
2022/02/09 06:33:25;;;;;;;2.97;2.78;;;;;;;;;;5009138;28;20128;-60
2022/02/09 06:35:52;;;;;;;3.08;2.78;;;;;;;;;;4996347;28;20117;-61
2022/02/09 06:38:17;;;;;;;3.03;2.83;;;;;;;;;;5008115;28;20126;-59
2022/02/09 06:40:45;;;;;;;3.47;3.17;;;;;;;;;;4998872;28;20118;-59
2022/02/09 06:43:11;;;;;;;3.65;3.30;;;;;;;;;;5001373;28;20085;-60
2022/02/09 06:45:39;;;;;;;3.15;2.95;;;;;;;;;;5001162;28;20043;-60
2022/02/09 06:48:14;;;;;;;3.95;3.65;;;;;;;;;;5007674;28;20069;-58
2022/02/09 06:50:44;;;;;;;;;;;;;;;;;;5013009;28;20042;-60
2022/02/09 06:53:26;;;;;;;3.42;3.08;;;;;;;;;;5031100;28;19992;-60
2022/02/09 06:55:55;;;;;;;3.47;3.20;;;;;;;;;;5024115;28;20041;-60
2022/02/09 06:58:41;;;;;;;2.80;2.60;;;;;;;;;;5031756;28;20083;-60
2022/02/09 07:01:07;;;;;;;4.40;3.83;;;;;;;;;;5042331;28;20428;-59
2022/02/09 07:03:32;;;;;;;3.38;3.17;;;;;;;;;;5048595;28;20024;-62
2022/02/09 07:05:57;;;;;;;3.63;3.30;;;;;;;;;;5050649;28;20026;-59
2022/02/09 07:08:23;;;;;;;3.83;3.53;;;;;;;;;;5036620;28;20034;-60
2022/02/09 07:10:48;;;;;;;3.10;2.90;;;;;;;;;;5035606;28;20044;-60
2022/02/09 07:13:13;;;;;;;3.47;3.17;;;;;;;;;;5035489;28;20032;-59
2022/02/09 07:15:43;;;;;;;3.17;2.88;;;;;;;;;;5035267;28;20116;-60
2022/02/09 07:18:11;;;;;;;3.30;3.10;;;;;;;;;;5042409;28;20032;-61
2022/02/09 07:23:23;;;;;;;3.00;2.80;;;;;;;;;;5018850;28;20174;-60
2022/02/09 07:26:02;;;;;;;3.03;2.83;;;;;;;;;;5050768;28;20415;-60
2022/02/09 07:28:27;;;;;;;3.65;3.05;;;;;;;;;;5035826;28;20028;-61
2022/02/09 07:30:52;;;;;;;4.00;3.60;;;;;;;;;;5045340;28;20037;-61
2022/02/09 07:33:17;;;;;;;3.13;2.92;;;;;;;;;;5039025;28;20040;-60
2022/02/09 07:35:43;;;;;;;3.92;3.63;;;;;;;;;;5043650;28;20043;-61
2022/02/09 07:38:08;;;;;;;3.70;3.40;;;;;;;;;;5038849;28;20482;-60
2022/02/09 07:40:33;;;;;;;4.05;3.30;;;;;;;;;;5040237;28;20061;-57
2022/02/09 07:43:04;;;;;;;3.60;3.30;;;;;;;;;;5031000;28;20036;-60
2022/02/09 07:50:44;;;;;;;3.17;2.88;;;;;;;;;;5030412;28;20036;-61
2022/02/09 07:53:23;;;;;;;2.80;2.60;;;;;;;;;;5024823;28;20025;-60
2022/02/09 07:55:48;;;;;;;3.08;2.88;;;;;;;;;;5032586;28;20186;-60
2022/02/09 07:58:14;;;;;;;2.65;2.45;;;;;;;;;;5024748;28;20562;-59
2022/02/09 08:00:39;;;;;;;2.72;2.53;;;;;;;;;;5026812;28;20075;-60
2022/02/09 08:03:05;;;;;;;2.97;2.78;;;;;;;;;;5033206;28;20025;-59
2022/02/09 08:05:31;;;;;;;3.17;2.97;;;;;;;;;;5033552;28;20016;-59
2022/02/09 08:07:56;;;;;;;2.17;2.00;;;;;;;;;;5030900;28;20359;-58
2022/02/09 08:10:38;;;;;;;2.60;2.40;;;;;;;;;;5029135;28;20096;-60
2022/02/09 08:24:11;;;;;;;2.30;2.10;;;;;;;;;;5044163;28;20148;-61
2022/02/09 08:26:49;;;;;;;3.00;2.80;;;;;;;;;;5038062;28;20022;-60
2022/02/09 08:29:26;;;;;;;2.10;2.00;;;;;;;;;;5034100;28;20021;-58
2022/02/09 08:32:38;;;;;;;2.60;2.40;;;;;;;;;;5033317;28;20026;-61
2022/02/09 08:34:43;;;;;;;2.78;2.42;;;;;;;;;;5031456;28;20033;-59
2022/02/09 08:37:08;;;;;;;2.53;2.33;;;;;;;;;;5033499;28;20029;-59
2022/02/09 08:39:34;;;;;;;2.53;2.33;;;;;;;;;;5038226;28;20040;-59
2022/02/09 08:41:59;;;;;;;3.22;2.90;;;;;;;;;;5032995;28;20453;-60
2022/02/09 08:44:25;;;;;;;3.55;3.22;;;;;;;;;;5038691;28;20032;-59
2022/02/09 08:46:50;;;;;;;3.30;3.05;;;;;;;;;;5039469;28;20067;-60
2022/02/09 08:49:15;;;;;;;2.92;2.72;;;;;;;;;;5044936;28;20036;-60
2022/02/09 08:51:41;;;;;;;2.35;2.15;;;;;;;;;;5024824;28;20033;-61
2022/02/09 08:54:06;;;;;;;2.50;2.30;;;;;;;;;;5035776;28;20417;-61
2022/02/09 08:56:32;;;;;;;2.97;2.78;;;;;;;;;;5039469;28;20119;-60
2022/02/09 08:58:58;;;;;;;2.95;2.65;;;;;;;;;;5050170;28;20082;-60
2022/02/09 09:01:39;;;;;;;2.30;2.20;;;;;;;;;;5038905;28;20491;-60
2022/02/09 09:04:15;;;;;;;2.88;2.67;;;;;;;;;;5030609;28;20017;-59
2022/02/09 09:06:43;;;;;;;2.90;2.67;;;;;;;;;;5033245;28;20079;-60
2022/02/09 09:17:47;;;;;;;3.17;2.40;;;;;;;;;;4972902;28;20030;-60
2022/02/09 10:34:07;;;;;;;2.60;2.40;;;;;;;;;;5020244;28;20511;-60
2022/02/09 10:37:05;;;;;;;4.72;2.83;;;;;;;;;;5040960;28;20158;-60
2022/02/09 10:39:47;;;;;;;2.65;2.45;;;;;;;;;;5019193;28;20045;-59
2022/02/09 10:44:47;;;;;;;4.70;2.80;;;;;;;;;;5027258;28;20053;-59
2022/02/09 10:47:23;;;;;;;2.50;2.30;;;;;;;;;;5031209;28;20012;-60
2022/02/09 10:50:06;;;;;;;2.78;2.53;;;;;;;;;;5028677;28;20026;-60
2022/02/09 10:52:35;;;;;;;2.75;2.55;;;;;;;;;;5019846;28;20405;-60
2022/02/09 10:55:00;;;;;;;2.35;2.10;;;;;;;;;;5026375;28;20050;-59
2022/02/09 10:57:25;;;;;;;2.42;2.17;;;;;;;;;;5016096;28;20037;-60
2022/02/09 10:59:51;;;;;;;4.00;2.45;;;;;;;;;;5040243;28;20044;-59
2022/02/09 11:02:17;;;;;;;2.63;2.42;;;;;;;;;;5040584;28;20033;-60
2022/02/09 11:04:42;;;;;;;2.53;2.30;;;;;;;;;;5031737;28;20119;-60
2022/02/09 11:07:08;;;;;;;2.33;2.13;;;;;;;;;;5045794;28;20554;-59
2022/02/09 11:09:35;;;;;;;2.22;2.03;;;;;;;;;;5023616;28;20025;-60
2022/02/09 11:12:01;;;;;;;2.67;2.47;;;;;;;;;;5040775;28;20086;-60
2022/02/09 11:14:26;;;;;;;3.13;2.17;;;;;;;;;;5031431;28;20041;-59
2022/02/09 11:16:54;;;;;;;3.03;2.10;;;;;;;;;;5044461;28;20496;-59
2022/02/09 11:19:25;;;;;;;2.28;2.17;;;;;;;;;;5030721;28;20033;-59
2022/02/09 11:22:01;;;;;;;2.92;2.30;;;;;;;;;;5013739;28;20053;-61
2022/02/09 11:24:27;;;;;;;2.60;2.03;;;;;;;;;;5034231;28;20021;-60
2022/02/09 11:27:01;;;;;;;2.17;1.85;;;;;;;;;;5036783;28;20028;-60
2022/02/09 11:32:05;;;;;;;2.50;2.30;;;;;;;;;;5017911;28;20025;-59
2022/02/09 11:34:54;;;;;;;2.47;2.28;;;;;;;;;;5030142;28;20040;-60
2022/02/09 11:37:28;;;;;;;1.77;1.40;;;;;;;;;;5041681;28;20113;-60
2022/02/09 11:39:57;;;;;;;2.20;2.00;;;;;;;;;;5034455;28;20040;-59
2022/02/09 11:42:23;;;;;;;2.25;2.03;;;;;;;;;;5033247;28;20025;-59
2022/02/09 11:54:46;;;;;;;3.15;1.88;;;;;;;;;;5018885;28;20095;-58
2022/02/09 11:59:47;;;;;;;2.15;1.95;;;;;;;;;;5033294;28;20036;-61
2022/02/09 12:11:06;;;;;;;2.15;1.95;;;;;;;;;;5035171;28;20035;-61
2022/02/09 12:13:52;;;;;;;1.83;1.73;;;;;;;;;;5028112;28;20032;-61
2022/02/09 12:19:23;;;;;;;2.10;1.90;;;;;;;;;;5018782;28;20028;-61
2022/02/09 12:24:24;;;;;;;1.98;1.48;;;;;;;;;;5031394;28;20106;-61
2022/02/09 12:27:02;;;;;;;1.80;1.42;;;;;;;;;;5030873;28;20139;-60
2022/02/09 12:29:36;;;;;;;2.25;1.65;;;;;;;;;;5029477;28;20039;-62
2022/02/09 12:32:20;;;;;;;2.90;1.75;;;;;;;;;;5032397;28;20381;-61
2022/02/09 12:35:00;;;;;;;1.95;1.40;;;;;;;;;;5030226;28;20029;-60
2022/02/09 12:37:27;;;;;;;1.58;1.40;;;;;;;;;;5047894;28;20029;-60
2022/02/09 12:39:54;;;;;;;1.85;1.45;;;;;;;;;;5045211;28;20339;-60
2022/02/09 12:42:20;;;;;;;1.65;1.55;;;;;;;;;;5035292;28;20021;-61
2022/02/09 12:45:04;;;;;;;1.80;1.45;;;;;;;;;;5044435;28;20476;-61
2022/02/09 12:47:39;;;;;;;2.22;1.60;;;;;;;;;;5012070;28;20029;-62
2022/02/09 12:50:07;;;;;;;1.85;1.75;;;;;;;;;;5035997;28;20036;-61
2022/02/09 12:52:34;;;;;;;2.35;1.55;;;;;;;;;;5016663;28;20064;-61
2022/02/09 12:55:02;;;;;;;1.50;1.30;;;;;;;;;;5028034;28;20064;-60
2022/02/09 12:57:38;;;;;;;1.15;1.05;;;;;;;;;;5031709;28;20116;-60
2022/02/09 13:00:07;;;;;;;2.17;1.42;;;;;;;;;;5027429;28;20492;-62
2022/02/09 13:02:42;;;;;;;2.47;1.63;;;;;;;;;;5031487;28;20065;-61
2022/02/09 13:05:08;;;;;;;1.75;1.65;;;;;;;;;;5030926;28;20117;-60
2022/02/09 13:07:33;;;;;;;2.47;1.67;;;;;;;;;;5031413;28;20382;-61
2022/02/09 13:09:58;;;;;;;1.88;1.70;;;;;;;;;;5031190;28;20033;-60
2022/02/09 13:12:27;;;;;;;1.50;1.02;;;;;;;;;;5028107;28;20382;-61
2022/02/09 13:14:58;;;;;;;1.55;1.25;;;;;;;;;;5029312;28;20022;-61
2022/02/09 13:17:52;;;;;;;2.58;1.55;;;;;;;;;;5033094;28;20025;-61
2022/02/09 13:20:46;;;;;;;2.03;1.35;;;;;;;;;;5029428;28;20057;-59
2022/02/09 13:26:26;;;;;;;1.80;1.38;;;;;;;;;;5025827;28;20112;-61
2022/02/09 14:55:43;;;;;;;2.70;1.60;;;;;;;;;;5043777;28;20123;-63
2022/02/09 14:58:11;;;;;;;2.22;1.50;;;;;;;;;;5031218;28;20106;-62
2022/02/09 15:00:50;;;;;;;1.58;1.20;;;;;;;;;;5029572;28;20032;-64
2022/02/09 15:06:29;;;;;;;1.92;1.40;;;;;;;;;;5030391;28;20083;-62
2022/02/09 15:09:08;;;;;;;1.98;1.27;;;;;;;;;;5026572;28;20030;-63
2022/02/09 15:11:54;;;;;;;1.23;1.08;;;;;;;;;;5033228;28;20033;-64
2022/02/09 15:14:35;;;;;;;1.60;1.05;;;;;;;;;;5027425;28;20034;-63
2022/02/09 15:17:46;;;;;;;1.58;1.10;;;;;;;;;;5017889;28;20029;-63
2022/02/09 15:22:20;;;;;;;2.10;1.30;;;;;;;;;;5026676;28;20148;-64
2022/02/09 15:24:46;;;;;;;1.42;1.33;;;;;;;;;;5031549;28;20458;-63
2022/02/09 15:27:16;;;;;;;2.40;1.60;;;;;;;;;;5031387;28;20025;-65
2022/02/09 15:29:42;;;;;;;1.30;1.20;;;;;;;;;;5032554;28;20025;-64
2022/02/09 15:32:15;;;;;;;2.17;1.42;;;;;;;;;;5022385;28;20033;-64
2022/02/09 15:35:08;;;;;;;2.28;1.38;;;;;;;;;;5032744;28;20500;-63
2022/02/09 15:37:38;;;;;;;1.83;1.27;;;;;;;;;;5034379;28;20064;-62
2022/02/09 15:40:24;;;;;;;1.80;1.20;;;;;;;;;;5029020;28;20021;-63
2022/02/09 15:43:16;;;;;;;2.17;1.20;;;;;;;;;;5029101;28;20017;-65
2022/02/09 15:59:56;;;;;;;1.88;1.25;;;;;;;;;;5024050;28;20037;-63
2022/02/09 16:05:59;;;;;;;1.60;1.30;;;;;;;;;;5029318;28;20048;-64
2022/02/09 16:23:52;;;;;;;1.92;1.15;;;;;;;;;;5026107;28;20267;-64
2022/02/09 16:45:07;;;;;;;2.53;2.03;;;;;;;;;;5019018;28;20040;-63
2022/02/09 16:47:55;;;;;;;2.20;2.00;;;;;;;;;;5014128;28;20053;-64
2022/02/09 16:50:26;;;;;;;2.55;1.80;;;;;;;;;;5013872;28;20052;-65
2022/02/09 16:53:02;;;;;;;2.85;1.90;;;;;;;;;;5022858;28;20028;-64
2022/02/09 17:19:49;;;;;;;1.98;1.50;;;;;;;;;;5023524;28;20075;-64
2022/02/09 17:22:14;;;;;;;1.40;1.13;;;;;;;;;;5012591;28;20258;-65
2022/02/09 17:24:40;;;;;;;1.77;1.60;;;;;;;;;;5017558;28;20064;-66
2022/02/09 17:27:07;;;;;;;1.35;1.25;;;;;;;;;;5017876;28;20525;-63
2022/02/09 17:32:24;;;;;;;2.58;1.60;;;;;;;;;;5018742;28;20037;-64
2022/02/09 17:35:05;;;;;;;1.55;1.20;;;;;;;;;;5015233;28;20406;-64
2022/02/09 17:37:55;;;;;;;1.75;1.63;;;;;;;;;;5042645;28;20040;-66
2022/02/09 17:54:07;;;;;;;2.58;1.27;;;;;;;;;;5015219;28;20088;-65
2022/02/09 17:56:40;;;;;;;1.67;1.10;;;;;;;;;;5033519;28;20017;-64
2022/02/09 17:59:12;;;;;;;1.30;0.95;;;;;;;;;;5027549;28;20478;-65
2022/02/09 18:01:37;;;;;;;2.08;1.20;;;;;;;;;;5022870;28;20322;-64
2022/02/09 18:04:03;;;;;;;2.08;1.40;;;;;;;;;;5023063;28;20108;-63
2022/02/09 18:06:31;;;;;;;1.60;1.08;;;;;;;;;;5026312;28;20414;-63
2022/02/09 18:11:36;;;;;;;1.23;1.00;;;;;;;;;;5022282;28;20246;-63
2022/02/09 18:30:23;;;;;;;1.85;1.50;;;;;;;;;;5027763;28;20055;-62
2022/02/09 18:39:07;;;;;;;2.08;1.63;;;;;;;;;;5019296;28;20524;-63
2022/02/09 18:44:01;;;;;;;2.03;1.13;;;;;;;;;;5013814;28;20121;-64
2022/02/09 18:46:56;;;;;;;2.08;1.27;;;;;;;;;;5043117;28;20076;-63
2022/02/09 19:00:51;;;;;;;2.10;1.77;;;;;;;;;;5023677;28;20033;-64
2022/02/09 19:03:23;;;;;;;3.20;1.58;;;;;;;;;;5030911;28;20148;-63
2022/02/09 19:05:50;;;;;;;2.35;1.60;;;;;;;;;;5026075;28;20060;-61
2022/02/09 19:31:45;;;;;;;2.30;1.88;;;;;;;;;;5030988;28;20429;-63
2022/02/09 19:45:36;;;;;;;1.70;1.60;;;;;;;;;;5021286;28;20034;-63
2022/02/09 19:48:07;;;;;;;1.80;1.70;;;;;;;;;;5015892;28;20105;-64
2022/02/09 19:53:38;;;;;;;1.83;1.40;;;;;;;;;;5015466;28;20100;-64
2022/02/09 19:56:07;;;;;;;1.75;1.65;;;;;;;;;;5012442;28;20072;-63
2022/02/09 19:58:41;;;;;;;4.18;1.80;;;;;;;;;;5022654;28;20063;-63
2022/02/09 20:01:10;;;;;;;1.90;1.73;;;;;;;;;;5026896;28;20120;-63
2022/02/09 20:03:35;;;;;;;1.80;1.65;;;;;;;;;;5034480;28;20021;-64
2022/02/09 20:06:01;;;;;;;2.10;1.80;;;;;;;;;;5026160;28;20398;-64
2022/02/09 20:08:26;;;;;;;2.00;1.63;;;;;;;;;;5013411;28;20497;-63
2022/02/09 20:10:51;;;;;;;2.60;2.00;;;;;;;;;;5026325;28;20009;-63
2022/02/09 20:13:16;;;;;;;1.70;1.60;;;;;;;;;;5017720;28;20029;-63
2022/02/09 20:15:42;;;;;;;2.88;1.73;;;;;;;;;;5021974;28;20025;-63
2022/02/09 20:18:07;;;;;;;1.95;1.75;;;;;;;;;;5033677;28;20193;-64
2022/02/09 20:20:35;;;;;;;2.35;1.90;;;;;;;;;;5028639;28;21391;-62
2022/02/09 20:23:00;;;;;;;1.92;1.80;;;;;;;;;;5017233;28;20025;-63
2022/02/09 20:25:27;;;;;;;2.28;2.08;;;;;;;;;;5019758;28;20026;-63
2022/02/09 20:27:54;;;;;;;1.73;1.40;;;;;;;;;;5033010;28;20386;-62
2022/02/09 20:30:23;;;;;;;2.00;1.60;;;;;;;;;;5032518;28;20014;-63
2022/02/09 20:32:53;;;;;;;1.70;1.60;;;;;;;;;;5014164;28;20033;-63
2022/02/09 20:35:20;;;;;;;1.88;1.60;;;;;;;;;;5024446;28;20108;-63
2022/02/09 20:37:49;;;;;;;2.72;1.98;;;;;;;;;;5015323;28;20041;-62
2022/02/09 20:40:22;;;;;;;1.63;1.52;;;;;;;;;;5025216;28;20438;-63
2022/02/09 20:42:55;;;;;;;2.65;1.40;;;;;;;;;;5041681;28;20029;-64
2022/02/09 20:46:07;;;;;;;3.63;1.70;;;;;;;;;;5037520;28;20022;-63
2022/02/09 20:48:11;;;;;;;2.25;1.65;;;;;;;;;;5020258;28;20133;-62
2022/02/09 20:50:37;;;;;;;2.38;1.65;;;;;;;;;;5019764;28;20030;-61
2022/02/09 20:53:02;;;;;;;2.17;1.42;;;;;;;;;;5010018;28;20422;-63
2022/02/09 20:55:29;;;;;;;2.05;1.60;;;;;;;;;;5014054;28;20104;-62
2022/02/09 20:57:55;;;;;;;2.03;1.50;;;;;;;;;;5014303;28;20025;-63
2022/02/09 21:00:28;;;;;;;1.70;1.60;;;;;;;;;;5021215;28;20036;-62
2022/02/09 21:03:03;;;;;;;1.50;1.38;;;;;;;;;;5026741;28;20033;-63
2022/02/09 21:05:40;;;;;;;;;;;;;;;;;;5019100;28;20026;-61
2022/02/09 21:13:08;;;;;;;1.63;1.50;;;;;;;;;;5021116;28;20402;-64
2022/02/09 21:15:51;;;;;;;1.95;1.52;;;;;;;;;;5018647;28;20079;-64
2022/02/09 21:45:22;;;;;;;1.60;1.42;;;;;;;;;;5028193;28;20085;-63
2022/02/09 21:55:47;;;;;;;2.08;1.38;;;;;;;;;;5023707;28;20065;-62
2022/02/09 21:58:32;;;;;;;1.92;1.30;;;;;;;;;;5012783;28;20037;-63
2022/02/09 22:01:53;;;;;;;2.45;1.30;;;;;;;;;;5012228;28;20026;-63
2022/02/09 22:06:54;;;;;;;2.67;1.38;;;;;;;;;;5017598;28;20083;-63
2022/02/09 22:20:21;;;;;;;1.60;1.00;;;;;;;;;;5023000;28;20437;-63
2022/02/09 22:27:59;;;;;;;2.50;0.80;;;;;;;;;;5023953;28;20056;-63
2022/02/09 22:56:52;;;;;;;2.00;1.30;;;;;;;;;;5022250;28;20020;-63
2022/02/09 22:59:27;;;;;;;2.10;0.90;;;;;;;;;;5020130;28;20026;-64
2022/02/09 23:01:57;;;;;;;1.75;0.93;;;;;;;;;;5018249;28;20080;-62
2022/02/09 23:12:41;;;;;;;2.03;0.75;;;;;;;;;;5031127;28;20371;-63
2022/02/09 23:22:58;;;;;;;0.98;0.70;;;;;;;;;;5017640;28;20279;-61
